Time;durP1;ratioP1;P1;durP2;ratioP2;P2;SDS_P1;SDS_P2;PMS_P1;PMS_P2;Temp;Humidity;BMP_temperature;BMP_pressure;BME280_temperature;BME280_humidity;BME280_pressure;Samples;Min_cycle;Max_cycle;Signal;HPM_P1;HPM_P2
2022/09/16 00:01:26;;;;;;;8.50;1.80;;;11.60;99.90;;;;;;5058243;28;20514;-65
2022/09/16 00:03:56;;;;;;;4.00;1.63;;;11.60;99.90;;;;;;5064171;28;20041;-64
2022/09/16 00:06:24;;;;;;;7.85;2.25;;;11.60;99.90;;;;;;5058469;28;20403;-66
2022/09/16 00:08:53;;;;;;;;;;;11.60;99.90;;;;;;5058080;28;20509;-64
2022/09/16 00:11:18;;;;;;;8.45;2.28;;;11.60;99.90;;;;;;5063986;28;20402;-67
2022/09/16 00:13:45;;;;;;;8.73;2.00;;;11.60;99.90;;;;;;5046491;28;20033;-66
2022/09/16 00:16:17;;;;;;;17.63;3.22;;;11.60;99.90;;;;;;5051963;28;20044;-66
2022/09/16 00:18:46;;;;;;;7.45;1.85;;;11.60;99.90;;;;;;5052291;28;20041;-67
2022/09/16 00:21:12;;;;;;;11.77;3.20;;;11.60;99.90;;;;;;5053693;28;20068;-67
2022/09/16 00:23:38;;;;;;;9.48;2.20;;;11.60;99.90;;;;;;5062665;28;20033;-66
2022/09/16 00:26:04;;;;;;;7.57;1.98;;;12.00;99.90;;;;;;5053918;28;20044;-65
2022/09/16 00:28:30;;;;;;;6.47;1.70;;;11.60;99.90;;;;;;5057797;28;20055;-65
2022/09/16 00:31:00;;;;;;;8.48;2.25;;;11.60;99.90;;;;;;5034096;28;20376;-66
2022/09/16 00:33:26;;;;;;;8.43;1.58;;;11.60;99.90;;;;;;5061508;28;20080;-64
2022/09/16 00:36:11;;;;;;;9.48;2.10;;;11.60;99.90;;;;;;5059719;28;20055;-66
2022/09/16 00:38:36;;;;;;;5.05;1.50;;;11.60;99.90;;;;;;5053630;28;20045;-65
2022/09/16 00:41:03;;;;;;;8.25;1.77;;;11.60;99.90;;;;;;5067085;28;20394;-65
2022/09/16 00:43:45;;;;;;;8.82;2.08;;;11.50;99.90;;;;;;5064526;28;20037;-66
2022/09/16 00:46:10;;;;;;;9.63;2.28;;;11.50;99.90;;;;;;5057333;28;20421;-66
2022/09/16 00:48:36;;;;;;;13.75;1.80;;;11.60;99.90;;;;;;5053644;28;20079;-66
2022/09/16 00:51:06;;;;;;;8.32;1.67;;;11.50;99.90;;;;;;5054557;28;20048;-66
2022/09/16 00:53:38;;;;;;;7.18;1.65;;;11.60;99.90;;;;;;5064676;28;20080;-67
2022/09/16 00:56:08;;;;;;;8.82;1.77;;;11.50;99.90;;;;;;5054920;28;20048;-66
2022/09/16 00:59:05;;;;;;;6.15;1.60;;;11.50;99.90;;;;;;5036386;28;20560;-66
2022/09/16 01:01:31;;;;;;;9.00;1.40;;;11.40;99.90;;;;;;5055045;28;20082;-68
2022/09/16 01:04:09;;;;;;;5.13;1.60;;;11.40;99.90;;;;;;5053660;28;20048;-66
2022/09/16 01:06:38;;;;;;;5.75;2.08;;;11.40;99.90;;;;;;5058046;28;20196;-66
2022/09/16 01:09:04;;;;;;;8.68;2.00;;;11.40;99.90;;;;;;5059768;28;20045;-66
2022/09/16 01:11:30;;;;;;;5.85;1.67;;;11.30;99.90;;;;;;5057684;28;20044;-66
2022/09/16 01:14:51;;;;;;;9.50;1.75;;;11.30;99.90;;;;;;5057958;28;20392;-67
2022/09/16 01:16:46;;;;;;;7.82;1.70;;;11.30;99.90;;;;;;5068622;28;20093;-67
2022/09/16 01:19:30;;;;;;;6.88;2.25;;;11.30;99.90;;;;;;5057642;28;20045;-66
2022/09/16 01:22:24;;;;;;;6.78;1.50;;;11.30;99.90;;;;;;5032772;28;20063;-67
2022/09/16 01:25:19;;;;;;;8.80;1.92;;;11.30;99.90;;;;;;5037880;28;20399;-68
2022/09/16 01:28:21;;;;;;;5.60;1.60;;;11.40;99.90;;;;;;5041292;28;20543;-68
2022/09/16 01:31:00;;;;;;;7.75;2.00;;;11.20;99.90;;;;;;5050516;28;20048;-67
2022/09/16 01:33:47;;;;;;;9.80;1.92;;;11.20;99.90;;;;;;5057624;28;20070;-66
2022/09/16 01:36:28;;;;;;;8.20;1.88;;;11.20;99.90;;;;;;5052995;28;20037;-66
2022/09/16 01:39:24;;;;;;;6.45;1.55;;;11.20;99.90;;;;;;5054513;28;20064;-65
2022/09/16 01:41:50;;;;;;;5.70;1.63;;;11.20;99.90;;;;;;5064537;28;20048;-67
2022/09/16 01:44:31;;;;;;;10.68;1.90;;;11.20;99.90;;;;;;5053861;28;21095;-67
2022/09/16 01:47:07;;;;;;;6.20;1.90;;;11.20;99.90;;;;;;5061277;28;20041;-66
2022/09/16 01:49:49;;;;;;;7.85;1.63;;;11.20;99.90;;;;;;5048658;28;20049;-66
2022/09/16 01:52:26;;;;;;;12.90;1.90;;;11.20;99.90;;;;;;5056464;28;20111;-66
2022/09/16 01:55:07;;;;;;;8.05;1.52;;;11.30;99.90;;;;;;5061055;28;20132;-67
2022/09/16 01:57:43;;;;;;;14.60;1.42;;;11.30;99.90;;;;;;5030602;28;20049;-66
2022/09/16 02:00:13;;;;;;;11.30;1.70;;;11.30;99.90;;;;;;5049069;28;20135;-67
2022/09/16 02:03:00;;;;;;;8.95;1.60;;;11.30;99.90;;;;;;5053877;28;20522;-65
2022/09/16 02:05:45;;;;;;;16.70;2.90;;;11.30;99.90;;;;;;5061270;28;20494;-65
2022/09/16 02:08:19;;;;;;;7.65;1.90;;;11.30;99.90;;;;;;5052727;28;20048;-69
2022/09/16 02:10:56;;;;;;;6.32;1.60;;;11.30;99.90;;;;;;5073714;28;20123;-65
2022/09/16 02:13:46;;;;;;;8.48;1.80;;;11.40;99.90;;;;;;5046097;28;20037;-67
2022/09/16 02:16:41;;;;;;;6.70;1.70;;;11.30;99.90;;;;;;5060650;28;20029;-66
2022/09/16 02:19:13;;;;;;;6.72;1.90;;;11.30;99.90;;;;;;5052940;28;20045;-67
2022/09/16 02:21:40;;;;;;;7.95;1.73;;;11.30;99.90;;;;;;5065733;28;20134;-66
2022/09/16 02:24:12;;;;;;;11.82;2.00;;;11.30;99.90;;;;;;5055081;28;20148;-67
2022/09/16 02:26:46;;;;;;;10.18;2.20;;;11.30;99.90;;;;;;5061878;28;20072;-66
2022/09/16 02:29:21;;;;;;;14.13;3.08;;;11.40;99.90;;;;;;5058003;28;20048;-66
2022/09/16 02:31:48;;;;;;;10.40;1.80;;;11.20;99.90;;;;;;5066362;28;20071;-67
2022/09/16 02:34:18;;;;;;;10.07;1.70;;;11.20;99.90;;;;;;5057806;28;20131;-66
2022/09/16 02:36:52;;;;;;;7.25;1.63;;;11.20;99.90;;;;;;5061833;28;20052;-65
2022/09/16 02:39:26;;;;;;;14.52;2.05;;;11.20;99.90;;;;;;5056618;28;20127;-67
2022/09/16 02:41:54;;;;;;;5.60;1.42;;;11.20;99.90;;;;;;5052922;28;20175;-66
2022/09/16 02:44:19;;;;;;;10.20;2.10;;;11.20;99.90;;;;;;5058161;28;20048;-66
2022/09/16 02:47:23;;;;;;;10.85;1.70;;;11.20;99.90;;;;;;5067109;28;20037;-66
2022/09/16 02:50:10;;;;;;;12.00;1.98;;;11.20;99.90;;;;;;5052662;28;20045;-64
2022/09/16 02:52:47;;;;;;;7.55;1.60;;;11.20;99.90;;;;;;5065229;28;20045;-66
2022/09/16 02:55:48;;;;;;;13.15;2.22;;;11.20;99.90;;;;;;5063090;28;20045;-67
2022/09/16 02:58:13;;;;;;;8.43;1.67;;;11.10;99.90;;;;;;5062581;28;20032;-67
2022/09/16 03:00:45;;;;;;;12.05;1.90;;;11.10;99.90;;;;;;5053271;28;20049;-65
2022/09/16 03:03:11;;;;;;;15.20;2.38;;;11.10;99.90;;;;;;5058754;28;20055;-66
2022/09/16 03:05:59;;;;;;;13.77;2.17;;;11.10;99.90;;;;;;5060382;28;20045;-65
2022/09/16 03:08:25;;;;;;;9.50;1.63;;;11.10;99.90;;;;;;5061163;28;20403;-66
2022/09/16 03:10:53;;;;;;;13.02;1.80;;;11.10;99.90;;;;;;5054303;28;20037;-65
2022/09/16 03:13:32;;;;;;;10.60;1.83;;;11.10;99.90;;;;;;5054942;28;20645;-66
2022/09/16 03:16:19;;;;;;;7.13;2.00;;;11.10;99.90;;;;;;5051437;28;20390;-65
2022/09/16 03:19:08;;;;;;;8.82;1.73;;;11.10;99.90;;;;;;5056722;28;20095;-66
2022/09/16 03:22:00;;;;;;;12.82;1.95;;;11.10;99.90;;;;;;5062601;28;20052;-65
2022/09/16 03:24:52;;;;;;;8.55;1.73;;;11.00;99.90;;;;;;5049659;28;20216;-65
2022/09/16 03:27:29;;;;;;;11.50;1.92;;;11.00;99.90;;;;;;5063668;28;20272;-66
2022/09/16 03:30:09;;;;;;;9.73;1.60;;;11.00;99.90;;;;;;5067386;28;20036;-66
2022/09/16 03:32:51;;;;;;;10.73;2.05;;;10.90;99.90;;;;;;5054702;28;20045;-65
2022/09/16 03:35:20;;;;;;;12.23;2.20;;;10.80;99.90;;;;;;5059268;28;20037;-66
2022/09/16 03:37:46;;;;;;;10.68;1.90;;;10.80;99.90;;;;;;5054133;28;20521;-66
2022/09/16 03:40:15;;;;;;;13.23;2.15;;;10.80;99.90;;;;;;5059359;28;20041;-65
2022/09/16 03:42:42;;;;;;;11.48;2.53;;;10.80;99.90;;;;;;5056365;28;20051;-66
2022/09/16 03:45:15;;;;;;;10.82;2.03;;;10.70;99.90;;;;;;5056899;28;20036;-66
2022/09/16 03:47:42;;;;;;;10.82;1.92;;;10.70;99.90;;;;;;5055256;28;20487;-67
2022/09/16 03:50:08;;;;;;;5.38;1.80;;;10.70;99.90;;;;;;5051277;28;20501;-67
2022/09/16 03:52:34;;;;;;;10.02;2.13;;;10.70;99.90;;;;;;5062709;28;20052;-67
2022/09/16 03:54:59;;;;;;;9.43;2.30;;;10.80;99.90;;;;;;5051789;28;20037;-66
2022/09/16 03:57:29;;;;;;;8.90;2.15;;;10.80;99.90;;;;;;5053427;28;20048;-66
2022/09/16 03:59:55;;;;;;;14.13;2.10;;;10.70;99.90;;;;;;5038536;28;20057;-65
2022/09/16 04:02:20;;;;;;;13.48;2.40;;;10.70;99.90;;;;;;5054896;28;20506;-66
2022/09/16 04:04:48;;;;;;;11.65;2.30;;;10.70;99.90;;;;;;5050344;28;20041;-66
2022/09/16 04:07:14;;;;;;;16.00;2.50;;;10.80;99.90;;;;;;5056612;28;20125;-66
2022/09/16 04:09:41;;;;;;;12.93;2.55;;;10.70;99.90;;;;;;5057351;28;20116;-66
2022/09/16 04:12:07;;;;;;;13.32;2.63;;;10.60;99.90;;;;;;5032794;28;20045;-66
2022/09/16 04:14:34;;;;;;;10.35;2.53;;;10.70;99.90;;;;;;5055271;28;20396;-66
2022/09/16 04:17:00;;;;;;;12.02;2.40;;;10.60;99.90;;;;;;5047493;28;20514;-66
2022/09/16 04:19:26;;;;;;;21.00;2.67;;;10.60;99.90;;;;;;5054859;28;20059;-66
2022/09/16 04:21:52;;;;;;;12.02;2.63;;;10.60;99.90;;;;;;5053079;28;20040;-67
2022/09/16 04:24:17;;;;;;;9.52;2.08;;;10.50;99.90;;;;;;5056240;28;20431;-67
2022/09/16 04:26:45;;;;;;;14.82;2.25;;;10.50;99.90;;;;;;5056708;28;20107;-66
2022/09/16 04:29:11;;;;;;;9.20;2.05;;;10.50;99.90;;;;;;5053474;28;20387;-66
2022/09/16 04:31:37;;;;;;;12.20;2.10;;;10.50;99.90;;;;;;5065048;28;20045;-66
2022/09/16 04:34:03;;;;;;;10.43;2.17;;;10.40;99.90;;;;;;5052784;28;21297;-67
2022/09/16 04:36:31;;;;;;;12.02;2.15;;;10.40;99.90;;;;;;5058264;28;20071;-65
2022/09/16 04:38:57;;;;;;;10.80;2.22;;;10.40;99.90;;;;;;5062779;28;20396;-66
2022/09/16 04:41:25;;;;;;;13.25;2.15;;;10.40;99.90;;;;;;5054473;28;20047;-66
2022/09/16 04:43:57;;;;;;;;;;;10.70;99.90;;;;;;5060128;28;20120;-67
2022/09/16 04:46:24;;;;;;;18.77;2.58;;;10.40;99.90;;;;;;5054040;28;19928;-66
2022/09/16 04:48:51;;;;;;;12.85;2.53;;;10.40;99.90;;;;;;5054641;28;20095;-68
2022/09/16 04:51:21;;;;;;;17.00;2.17;;;10.50;99.90;;;;;;5059250;28;20482;-68
2022/09/16 04:53:47;;;;;;;16.08;3.08;;;10.50;99.90;;;;;;5051709;28;20048;-67
2022/09/16 04:56:16;;;;;;;14.63;2.33;;;10.50;99.90;;;;;;5061963;28;20033;-67
2022/09/16 04:58:45;;;;;;;;;;;10.50;99.90;;;;;;5058432;28;20069;-67
2022/09/16 05:01:17;;;;;;;15.50;2.15;;;10.50;99.90;;;;;;5050460;28;19920;-66
2022/09/16 05:03:48;;;;;;;14.52;2.47;;;10.50;99.90;;;;;;5053339;28;20423;-68
2022/09/16 05:06:18;;;;;;;11.48;2.45;;;10.50;99.90;;;;;;5044600;28;20076;-67
2022/09/16 05:08:44;;;;;;;10.13;1.58;;;10.50;99.90;;;;;;5055351;28;20097;-67
2022/09/16 05:11:15;;;;;;;14.18;2.00;;;10.50;99.90;;;;;;5053773;28;20167;-67
2022/09/16 05:13:41;;;;;;;9.63;1.77;;;10.50;99.90;;;;;;5060409;28;20042;-66
2022/09/16 05:16:09;;;;;;;7.68;2.20;;;10.40;99.90;;;;;;5057771;28;20064;-66
2022/09/16 05:18:36;;;;;;;;;;;10.40;99.90;;;;;;5055654;28;20033;-66
2022/09/16 05:21:04;;;;;;;17.83;2.88;;;10.30;99.90;;;;;;5057118;28;19920;-67
2022/09/16 05:23:30;;;;;;;15.98;2.15;;;10.40;99.90;;;;;;5054914;28;20100;-67
2022/09/16 05:26:03;;;;;;;20.40;2.30;;;10.30;99.90;;;;;;5048872;28;20107;-68
2022/09/16 05:28:29;;;;;;;18.55;2.80;;;10.30;99.90;;;;;;5053053;28;20063;-66
2022/09/16 05:30:54;;;;;;;18.95;2.75;;;10.30;99.90;;;;;;5052709;28;20080;-67
2022/09/16 05:33:20;;;;;;;21.75;3.00;;;10.30;99.90;;;;;;5051594;28;20152;-65
2022/09/16 05:35:45;;;;;;;10.75;2.25;;;10.30;99.90;;;;;;5056792;28;20110;-68
2022/09/16 05:38:12;;;;;;;13.98;2.05;;;10.40;99.90;;;;;;5055499;28;20048;-65
2022/09/16 05:40:38;;;;;;;14.45;2.30;;;10.40;99.90;;;;;;5059235;28;20049;-66
2022/09/16 05:43:04;;;;;;;12.55;2.60;;;10.40;99.90;;;;;;5057962;28;20098;-66
2022/09/16 05:45:30;;;;;;;14.55;2.55;;;10.50;99.90;;;;;;5060077;28;20475;-65
2022/09/16 05:47:55;;;;;;;16.17;1.80;;;10.40;99.90;;;;;;5059400;28;20071;-66
2022/09/16 05:50:21;;;;;;;16.10;2.63;;;10.50;99.90;;;;;;5055604;28;20048;-68
2022/09/16 05:52:48;;;;;;;13.05;2.58;;;10.40;99.90;;;;;;5058093;28;20037;-68
2022/09/16 05:55:14;;;;;;;15.88;2.53;;;10.50;99.90;;;;;;5034841;28;20102;-65
2022/09/16 05:57:42;;;;;;;16.73;2.35;;;10.50;99.90;;;;;;5058791;28;20229;-67
2022/09/16 06:00:09;;;;;;;19.65;2.60;;;10.50;99.90;;;;;;5055500;28;20454;-68
2022/09/16 06:02:34;;;;;;;16.08;2.28;;;10.50;99.90;;;;;;5057435;28;20376;-66
2022/09/16 06:05:03;;;;;;;13.40;2.78;;;10.60;99.90;;;;;;5052351;28;20098;-66
2022/09/16 06:07:28;;;;;;;;;;;10.60;99.90;;;;;;5053958;28;20045;-65
2022/09/16 06:09:54;;;;;;;15.65;2.33;;;10.70;99.90;;;;;;5062150;28;20444;-66
2022/09/16 06:12:20;;;;;;;10.50;2.53;;;10.70;99.90;;;;;;5040103;28;20044;-67
2022/09/16 06:14:45;;;;;;;13.13;3.03;;;10.80;99.90;;;;;;5040240;28;20119;-66
2022/09/16 06:17:11;;;;;;;17.60;2.90;;;10.90;99.90;;;;;;5056128;28;20056;-66
2022/09/16 06:19:37;;;;;;;15.35;2.92;;;10.90;99.90;;;;;;5060091;28;20510;-67
2022/09/16 06:22:03;;;;;;;13.38;2.13;;;10.90;99.90;;;;;;5056883;28;20153;-68
2022/09/16 06:24:29;;;;;;;14.07;2.70;;;11.00;99.90;;;;;;5053005;28;20444;-67
2022/09/16 06:26:55;;;;;;;17.13;2.35;;;11.00;99.90;;;;;;5048628;28;20049;-66
2022/09/16 06:29:21;;;;;;;11.80;2.75;;;11.00;99.90;;;;;;5057107;28;20040;-66
2022/09/16 06:31:50;;;;;;;11.23;2.83;;;11.10;99.90;;;;;;5074730;28;20447;-66
2022/09/16 06:34:17;;;;;;;13.75;3.05;;;11.10;99.90;;;;;;5062810;28;20063;-67
2022/09/16 06:36:44;;;;;;;15.65;2.38;;;11.10;99.90;;;;;;5067854;28;20550;-67
2022/09/16 06:39:12;;;;;;;25.42;3.63;;;11.30;99.90;;;;;;5065564;28;20044;-66
2022/09/16 06:41:39;;;;;;;16.55;2.40;;;11.30;99.90;;;;;;5053852;28;20107;-66
2022/09/16 06:44:08;;;;;;;21.10;3.05;;;11.40;99.90;;;;;;5053823;28;20049;-64
2022/09/16 06:46:34;;;;;;;12.80;2.30;;;11.70;99.90;;;;;;5054958;28;20044;-67
2022/09/16 06:49:00;;;;;;;14.13;2.50;;;12.10;99.90;;;;;;5058444;28;20056;-66
2022/09/16 06:51:27;;;;;;;14.35;2.30;;;12.50;99.90;;;;;;5055431;28;20048;-66
2022/09/16 06:53:59;;;;;;;17.33;2.40;;;12.90;99.90;;;;;;5052338;28;20087;-66
2022/09/16 06:56:24;;;;;;;16.10;2.72;;;13.30;99.90;;;;;;5068235;28;20051;-67
2022/09/16 06:58:54;;;;;;;16.17;3.15;;;13.60;99.90;;;;;;5054663;28;20109;-67
2022/09/16 07:01:26;;;;;;;11.80;3.13;;;13.70;99.90;;;;;;5058772;28;20045;-67
2022/09/16 07:03:53;;;;;;;14.32;2.92;;;13.70;99.90;;;;;;5065928;28;20131;-67
2022/09/16 07:06:21;;;;;;;17.52;2.88;;;13.70;99.90;;;;;;5074239;28;20033;-67
2022/09/16 07:08:47;;;;;;;;;;;13.60;99.90;;;;;;5064186;28;20053;-67
2022/09/16 07:11:18;;;;;;;13.45;2.50;;;13.40;99.90;;;;;;5057970;28;20383;-66
2022/09/16 07:13:48;;;;;;;15.43;3.45;;;13.20;99.90;;;;;;5070898;28;20049;-67
2022/09/16 07:16:16;;;;;;;12.82;2.33;;;13.10;99.90;;;;;;5070796;28;20085;-66
2022/09/16 07:18:42;;;;;;;;;;;13.00;99.90;;;;;;5066070;28;20460;-66
2022/09/16 07:21:18;;;;;;;10.82;2.20;;;12.70;99.90;;;;;;5069285;28;19957;-66
2022/09/16 07:23:45;;;;;;;14.45;2.13;;;12.70;99.90;;;;;;5072538;28;20087;-65
2022/09/16 07:26:15;;;;;;;17.52;2.75;;;12.50;99.90;;;;;;5064223;28;20033;-66
2022/09/16 07:28:45;;;;;;;15.40;2.38;;;12.70;99.90;;;;;;5061561;28;20060;-66
2022/09/16 07:31:13;;;;;;;12.43;2.53;;;12.40;99.90;;;;;;5057431;28;20466;-66
2022/09/16 07:33:41;;;;;;;12.30;2.53;;;12.50;99.90;;;;;;5068654;28;20044;-66
2022/09/16 07:36:09;;;;;;;14.32;2.40;;;12.50;99.90;;;;;;5061011;28;20407;-68
2022/09/16 07:38:35;;;;;;;11.20;2.10;;;12.60;99.90;;;;;;5063009;28;20049;-66
2022/09/16 07:41:16;;;;;;;10.05;2.05;;;12.70;99.90;;;;;;5071162;28;20044;-67
2022/09/16 07:43:42;;;;;;;11.60;2.55;;;12.70;99.90;;;;;;5066480;28;20522;-66
2022/09/16 07:46:10;;;;;;;11.32;2.08;;;12.80;99.90;;;;;;5071561;28;20032;-67
2022/09/16 07:48:37;;;;;;;14.40;3.10;;;12.80;99.90;;;;;;5055154;28;20045;-65
2022/09/16 07:51:07;;;;;;;11.50;2.08;;;13.00;99.90;;;;;;5055404;28;20048;-67
2022/09/16 07:53:34;;;;;;;17.38;2.63;;;13.20;99.90;;;;;;5058590;28;20034;-67
2022/09/16 07:56:09;;;;;;;11.93;2.30;;;13.50;99.90;;;;;;5059001;28;20037;-66
2022/09/16 07:58:37;;;;;;;19.23;2.70;;;13.60;99.90;;;;;;5054762;28;20044;-67
2022/09/16 08:01:06;;;;;;;11.45;2.17;;;13.80;99.90;;;;;;5052615;28;20045;-68
2022/09/16 08:03:37;;;;;;;18.55;2.30;;;13.90;99.90;;;;;;5050493;28;20036;-67
2022/09/16 08:06:25;;;;;;;11.13;2.53;;;13.90;99.90;;;;;;5056184;28;20049;-67
2022/09/16 08:08:53;;;;;;;16.60;2.97;;;13.80;99.90;;;;;;5082350;22;20068;-72
2022/09/16 08:11:19;;;;;;;15.07;3.35;;;13.80;99.90;;;;;;5053059;28;20442;-75
2022/09/16 08:13:45;;;;;;;13.80;2.40;;;13.80;99.90;;;;;;5058171;28;20040;-74
2022/09/16 08:16:14;;;;;;;14.48;2.97;;;13.90;99.90;;;;;;5059586;28;20387;-73
2022/09/16 08:18:40;;;;;;;16.58;2.83;;;14.10;99.90;;;;;;5056158;28;20426;-74
2022/09/16 08:21:11;;;;;;;15.73;2.75;;;14.20;99.90;;;;;;5066953;28;20036;-70
2022/09/16 08:23:37;;;;;;;16.20;2.63;;;14.30;99.90;;;;;;5053050;28;20059;-71
2022/09/16 08:26:05;;;;;;;12.68;2.30;;;14.50;99.90;;;;;;5066537;28;20044;-74
2022/09/16 08:28:31;;;;;;;14.85;2.40;;;14.60;99.90;;;;;;5068350;28;20044;-74
2022/09/16 08:31:01;;;;;;;13.93;2.50;;;14.70;99.90;;;;;;5075780;28;20041;-73
2022/09/16 08:33:27;;;;;;;16.45;2.42;;;14.80;99.90;;;;;;5065112;28;20045;-73
2022/09/16 08:36:28;;;;;;;14.10;2.17;;;14.90;99.90;;;;;;5055791;28;20510;-75
2022/09/16 08:38:55;;;;;;;10.77;2.35;;;15.10;99.90;;;;;;4952572;28;20042;-75
2022/09/16 08:41:43;;;;;;;12.07;2.22;;;15.20;99.90;;;;;;5056679;28;20060;-74
2022/09/16 08:44:35;;;;;;;13.52;2.70;;;15.30;99.90;;;;;;5056222;28;20483;-74
2022/09/16 08:47:12;;;;;;;10.45;1.95;;;15.40;99.90;;;;;;5066603;28;20064;-74
2022/09/16 08:49:43;;;;;;;14.43;2.33;;;15.50;99.90;;;;;;5059666;28;20053;-75
2022/09/16 08:52:31;;;;;;;13.95;2.75;;;15.50;99.90;;;;;;5065573;28;20064;-73
2022/09/16 08:55:09;;;;;;;6.85;1.88;;;15.50;99.90;;;;;;5059656;28;20092;-71
2022/09/16 08:57:40;;;;;;;12.00;2.80;;;15.60;99.90;;;;;;5074221;28;20051;-73
2022/09/16 09:00:14;;;;;;;10.93;2.33;;;15.70;99.90;;;;;;5068091;28;20059;-73
2022/09/16 09:03:00;;;;;;;14.75;2.55;;;15.90;99.60;;;;;;5054098;28;20076;-72
2022/09/16 09:05:51;;;;;;;14.57;2.10;;;15.80;99.90;;;;;;5056675;28;20099;-74
2022/09/16 09:08:36;;;;;;;12.88;2.47;;;15.70;99.90;;;;;;5050488;28;20159;-75
2022/09/16 09:11:20;;;;;;;15.98;2.92;;;15.40;99.90;;;;;;5046960;28;20553;-73
2022/09/16 09:14:10;;;;;;;17.05;2.60;;;15.20;99.90;;;;;;5034192;28;20767;-72
2022/09/16 09:17:14;;;;;;;11.38;2.20;;;15.20;99.90;;;;;;5041155;28;20045;-75
2022/09/16 09:19:48;;;;;;;12.25;2.45;;;15.50;99.90;;;;;;5043900;28;20059;-72
2022/09/16 09:22:49;;;;;;;13.98;2.40;;;15.50;99.90;;;;;;5050219;28;20417;-73
2022/09/16 09:25:24;;;;;;;16.42;2.40;;;15.50;99.90;;;;;;5049996;28;20041;-74
2022/09/16 09:27:49;;;;;;;11.25;1.85;;;15.50;99.90;;;;;;5053703;28;20049;-71
2022/09/16 09:30:19;;;;;;;12.13;2.70;;;15.70;99.20;;;;;;5049939;28;20365;-72
2022/09/16 09:33:14;;;;;;;18.23;2.78;;;15.70;99.40;;;;;;5058040;28;20382;-75
2022/09/16 09:35:56;;;;;;;12.52;2.40;;;15.90;99.50;;;;;;5030011;28;20053;-71
2022/09/16 09:38:50;;;;;;;9.10;2.38;;;16.10;99.40;;;;;;5041447;28;20044;-69
2022/09/16 09:41:21;;;;;;;11.80;2.50;;;16.20;97.00;;;;;;5045055;28;20168;-70
2022/09/16 09:44:34;;;;;;;15.63;2.42;;;16.40;97.20;;;;;;5047244;28;20423;-69
2022/09/16 09:47:07;;;;;;;11.98;2.03;;;16.50;96.20;;;;;;5027177;28;20144;-71
2022/09/16 09:49:50;;;;;;;8.10;1.70;;;16.50;96.50;;;;;;5036323;28;20399;-70
2022/09/16 09:52:25;;;;;;;11.88;2.17;;;16.30;95.30;;;;;;5039594;28;20041;-70
2022/09/16 09:54:51;;;;;;;6.55;1.52;;;15.90;97.80;;;;;;5034785;28;20041;-69
2022/09/16 09:57:42;;;;;;;9.02;2.10;;;15.60;99.80;;;;;;5037438;28;20103;-71
2022/09/16 10:00:17;;;;;;;9.15;2.53;;;15.40;99.90;;;;;;5041644;28;20559;-70
2022/09/16 10:02:44;;;;;;;8.50;1.95;;;15.20;99.90;;;;;;5035294;28;20041;-71
2022/09/16 10:05:30;;;;;;;18.88;2.90;;;15.40;99.90;;;;;;5054429;28;20457;-70
2022/09/16 10:08:25;;;;;;;11.30;2.20;;;15.40;99.90;;;;;;5044514;28;20111;-71
2022/09/16 10:10:56;;;;;;;16.33;1.90;;;15.20;99.90;;;;;;5035376;28;20638;-69
2022/09/16 10:13:24;;;;;;;9.80;1.98;;;15.40;99.90;;;;;;5042108;28;20054;-72
2022/09/16 10:15:53;;;;;;;10.75;2.67;;;15.60;99.90;;;;;;5044968;28;20044;-72
2022/09/16 10:18:30;;;;;;;10.98;2.20;;;16.00;99.90;;;;;;5061020;28;20454;-72
2022/09/16 10:21:05;;;;;;;14.15;2.40;;;16.30;99.90;;;;;;5049165;28;20486;-70
2022/09/16 10:23:31;;;;;;;11.50;2.42;;;16.50;99.90;;;;;;5039404;28;20037;-71
2022/09/16 10:26:19;;;;;;;15.63;2.38;;;16.60;99.20;;;;;;5050361;28;20032;-72
2022/09/16 10:28:59;;;;;;;11.13;2.50;;;16.80;99.90;;;;;;5053945;28;20038;-71
2022/09/16 10:31:30;;;;;;;12.88;2.67;;;17.00;98.10;;;;;;5040779;28;20443;-71
2022/09/16 10:33:57;;;;;;;10.93;2.33;;;16.90;97.80;;;;;;5043924;28;20033;-72
2022/09/16 10:36:26;;;;;;;12.18;2.50;;;16.60;97.90;;;;;;5040418;28;20378;-71
2022/09/16 10:38:56;;;;;;;12.77;2.80;;;16.30;99.50;;;;;;5057422;28;20418;-71
2022/09/16 10:41:24;;;;;;;15.45;2.90;;;16.30;99.90;;;;;;5038070;28;20384;-69
2022/09/16 10:43:59;;;;;;;10.82;2.38;;;16.10;99.90;;;;;;5032378;28;20029;-70
2022/09/16 10:46:26;;;;;;;11.48;2.90;;;16.00;99.90;;;;;;5050806;28;20055;-71
2022/09/16 10:48:58;;;;;;;10.35;2.30;;;16.30;99.90;;;;;;5050665;28;20050;-70
2022/09/16 10:51:26;;;;;;;10.48;2.15;;;16.70;99.90;;;;;;5048446;28;20037;-71
2022/09/16 10:53:53;;;;;;;;;;;17.30;99.90;;;;;;5063226;28;20044;-72
2022/09/16 10:56:22;;;;;;;7.50;1.70;;;17.70;96.50;;;;;;5044443;28;19928;-72
2022/09/16 10:58:48;;;;;;;10.30;2.30;;;18.10;95.60;;;;;;5054220;28;20080;-72
2022/09/16 11:01:33;;;;;;;11.02;2.05;;;18.70;95.40;;;;;;5042556;28;20042;-72
2022/09/16 11:03:59;;;;;;;11.77;1.83;;;18.90;93.20;;;;;;5049018;28;20470;-70
2022/09/16 11:07:21;;;;;;;12.02;2.40;;;18.90;92.30;;;;;;5042733;28;20561;-71
2022/09/16 11:09:53;;;;;;;10.07;2.10;;;18.40;92.80;;;;;;5009216;28;20133;-70
2022/09/16 11:12:51;;;;;;;14.55;2.67;;;18.00;93.30;;;;;;5007279;28;20049;-71
2022/09/16 11:15:30;;;;;;;12.15;1.98;;;17.60;95.40;;;;;;5016740;28;20060;-69
2022/09/16 11:17:59;;;;;;;10.27;2.28;;;17.10;96.30;;;;;;5042957;28;20180;-70
2022/09/16 11:20:39;;;;;;;8.48;1.85;;;16.70;97.40;;;;;;5037237;28;20462;-71
2022/09/16 11:23:15;;;;;;;8.52;2.40;;;16.60;97.00;;;;;;5034177;28;20044;-71
2022/09/16 11:25:58;;;;;;;14.25;2.58;;;16.70;96.20;;;;;;5047981;28;20052;-72
2022/09/16 11:28:49;;;;;;;40.47;3.53;;;16.80;96.30;;;;;;5049433;28;20087;-70
2022/09/16 11:31:33;;;;;;;10.80;2.42;;;17.10;93.20;;;;;;5042729;28;20067;-70
2022/09/16 11:34:14;;;;;;;18.65;3.35;;;17.40;92.50;;;;;;5042463;28;20560;-69
2022/09/16 11:37:20;;;;;;;16.30;2.92;;;17.60;91.80;;;;;;5042561;28;20484;-72
2022/09/16 11:39:57;;;;;;;15.13;3.45;;;17.70;92.10;;;;;;5037814;28;20415;-73
2022/09/16 11:42:33;;;;;;;23.30;3.00;;;18.10;92.10;;;;;;5040249;28;20128;-72
2022/09/16 11:45:26;;;;;;;18.63;3.30;;;18.30;93.00;;;;;;5045821;28;20045;-69
2022/09/16 11:48:47;;;;;;;10.48;2.47;;;18.60;92.70;;;;;;5048367;28;20060;-70
2022/09/16 11:51:39;;;;;;;19.40;3.85;;;18.80;91.60;;;;;;5007858;28;20038;-71
2022/09/16 11:54:41;;;;;;;12.07;2.67;;;18.80;91.60;;;;;;4992537;28;20046;-70
2022/09/16 11:57:15;;;;;;;15.68;2.28;;;18.80;90.80;;;;;;5045768;28;20410;-71
2022/09/16 12:00:01;;;;;;;13.23;2.92;;;18.70;90.60;;;;;;5030610;28;20391;-70
2022/09/16 12:02:35;;;;;;;13.30;2.95;;;18.70;91.00;;;;;;5044548;28;20060;-72
2022/09/16 12:05:33;;;;;;;15.75;2.55;;;18.60;91.00;;;;;;5042475;28;20041;-74
2022/09/16 12:08:24;;;;;;;24.33;2.60;;;18.60;91.60;;;;;;5048526;28;20468;-71
2022/09/16 12:11:02;;;;;;;13.23;2.65;;;18.60;91.40;;;;;;5041559;28;20045;-71
2022/09/16 12:13:45;;;;;;;16.55;3.63;;;18.30;88.80;;;;;;5039013;28;20397;-71
2022/09/16 12:16:34;;;;;;;16.67;3.00;;;17.90;90.50;;;;;;5039686;28;20431;-71
2022/09/16 12:19:09;;;;;;;15.35;3.53;;;17.70;90.50;;;;;;5045928;28;20487;-71
2022/09/16 12:21:58;;;;;;;14.88;2.83;;;17.60;88.90;;;;;;5045983;28;20048;-74
2022/09/16 12:24:34;;;;;;;18.67;2.53;;;17.40;88.10;;;;;;5040331;28;20045;-75
2022/09/16 12:27:14;;;;;;;14.60;2.65;;;17.10;89.60;;;;;;5064912;28;20051;-72
2022/09/16 12:29:58;;;;;;;14.30;3.47;;;17.10;90.70;;;;;;5040981;28;20048;-71
2022/09/16 12:32:33;;;;;;;15.48;3.00;;;17.10;91.80;;;;;;5038300;28;20060;-74
2022/09/16 12:35:04;;;;;;;22.33;3.30;;;17.30;91.50;;;;;;5048701;28;20052;-72
2022/09/16 12:37:38;;;;;;;19.50;4.30;;;17.20;92.00;;;;;;5045691;28;20067;-71
2022/09/16 12:40:12;;;;;;;14.38;2.88;;;17.20;92.00;;;;;;5042139;28;20067;-72
2022/09/16 12:43:05;;;;;;;21.95;2.97;;;17.10;92.70;;;;;;5024655;28;20037;-72
2022/09/16 12:46:12;;;;;;;13.70;2.58;;;17.00;93.50;;;;;;5033114;28;20458;-74
2022/09/16 12:48:57;;;;;;;16.80;2.85;;;16.80;94.10;;;;;;5040734;28;20587;-74
2022/09/16 12:51:48;;;;;;;10.73;2.13;;;16.70;95.20;;;;;;5046059;28;20442;-74
2022/09/16 12:54:45;;;;;;;12.23;2.20;;;16.50;95.00;;;;;;5043183;28;20049;-74
2022/09/16 12:57:30;;;;;;;5.40;1.58;;;16.40;95.10;;;;;;5035335;28;20089;-72
2022/09/16 13:00:27;;;;;;;10.52;1.85;;;16.30;93.00;;;;;;5033484;28;20049;-72
2022/09/16 13:02:58;;;;;;;5.80;1.60;;;16.20;92.20;;;;;;5037840;28;20041;-72
2022/09/16 13:05:30;;;;;;;9.07;1.65;;;16.20;93.30;;;;;;5047591;28;20041;-72
2022/09/16 13:07:59;;;;;;;4.18;1.20;;;16.10;94.40;;;;;;5052606;28;20072;-74
2022/09/16 13:10:37;;;;;;;8.77;1.95;;;16.10;93.40;;;;;;5047233;28;20056;-74
2022/09/16 13:13:04;;;;;;;11.52;1.92;;;16.00;95.20;;;;;;5038716;28;20029;-75
2022/09/16 13:15:36;;;;;;;8.32;2.03;;;15.80;97.00;;;;;;5045115;28;20123;-75
2022/09/16 13:18:21;;;;;;;13.02;2.47;;;15.50;99.20;;;;;;5041194;28;20038;-72